createdAt,value
2023-01-22T00:01:36.216Z,22.60
2023-01-22T00:04:05.278Z,21.87
2023-01-22T00:06:34.100Z,23.10
2023-01-22T00:09:04.049Z,21.70
2023-01-22T00:11:32.699Z,22.37
2023-01-22T00:14:01.515Z,22.33
2023-01-22T00:16:30.272Z,22.60
2023-01-22T00:18:59.220Z,25.07
2023-01-22T00:21:27.987Z,21.77
2023-01-22T00:23:56.687Z,21.60
2023-01-22T00:26:25.325Z,21.90
2023-01-22T00:28:54.095Z,20.77
2023-01-22T00:31:23.940Z,23.47
2023-01-22T00:33:52.706Z,21.00
2023-01-22T00:36:23.300Z,20.50
2023-01-22T00:38:52.827Z,22.53
2023-01-22T00:41:22.215Z,22.20
2023-01-22T00:43:52.871Z,21.07
2023-01-22T00:46:21.991Z,22.50
2023-01-22T00:48:51.348Z,20.93
2023-01-22T00:51:20.394Z,21.23
2023-01-22T00:53:49.306Z,21.70
2023-01-22T00:56:18.067Z,23.00
2023-01-22T00:58:46.851Z,22.23
2023-01-22T01:01:16.863Z,21.97
2023-01-22T01:03:46.637Z,22.00
2023-01-22T01:06:20.947Z,21.90
2023-01-22T01:08:50.831Z,22.13
2023-01-22T01:11:26.202Z,21.57
2023-01-22T01:13:55.619Z,22.07
2023-01-22T01:16:27.020Z,22.43
2023-01-22T01:19:04.428Z,23.77
2023-01-22T01:21:34.042Z,22.17
2023-01-22T01:24:03.451Z,22.60
2023-01-22T01:26:33.602Z,23.47
2023-01-22T01:29:04.356Z,21.90
2023-01-22T01:31:33.392Z,22.27
2023-01-22T01:34:02.103Z,22.23
2023-01-22T01:36:47.800Z,21.93
2023-01-22T01:39:04.444Z,22.17
2023-01-22T01:41:33.238Z,22.27
2023-01-22T01:44:17.292Z,22.40
2023-01-22T01:46:58.305Z,21.70
2023-01-22T01:49:32.694Z,22.43
2023-01-22T01:52:07.583Z,23.50
2023-01-22T01:54:40.323Z,22.23
2023-01-22T01:57:12.503Z,22.30
2023-01-22T01:59:42.936Z,22.67
2023-01-22T02:02:11.899Z,21.50
2023-01-22T02:04:40.692Z,22.23
2023-01-22T02:07:10.867Z,20.77
2023-01-22T02:09:39.600Z,22.63
2023-01-22T02:12:09.990Z,23.97
2023-01-22T02:14:41.753Z,24.00
2023-01-22T02:17:13.310Z,24.33
2023-01-22T02:19:45.438Z,23.23
2023-01-22T02:22:27.063Z,23.23
2023-01-22T02:24:53.843Z,24.17
2023-01-22T02:27:23.106Z,22.47
2023-01-22T02:29:52.710Z,21.83
2023-01-22T02:32:22.430Z,20.17
2023-01-22T02:34:51.955Z,20.53
2023-01-22T02:37:23.005Z,20.13
2023-01-22T02:39:52.076Z,20.57
2023-01-22T02:42:20.819Z,20.53
2023-01-22T02:44:54.306Z,20.80
2023-01-22T02:47:34.628Z,19.07
2023-01-22T02:50:04.066Z,21.07
2023-01-22T02:52:36.127Z,21.27
2023-01-22T02:55:05.187Z,20.43
2023-01-22T02:57:33.980Z,20.70
2023-01-22T03:00:03.177Z,20.93
2023-01-22T03:02:31.855Z,21.03
2023-01-22T03:05:02.275Z,20.93
2023-01-22T03:07:34.109Z,21.53
2023-01-22T03:10:02.901Z,20.67
2023-01-22T03:12:50.652Z,20.97
2023-01-22T03:15:38.542Z,19.70
2023-01-22T03:18:27.094Z,20.20
2023-01-22T03:21:15.601Z,20.30
2023-01-22T03:23:55.975Z,19.80
2023-01-22T03:26:26.563Z,18.67
2023-01-22T03:28:55.371Z,19.07
2023-01-22T03:31:24.260Z,18.60
2023-01-22T03:33:53.455Z,18.70
2023-01-22T03:36:22.045Z,17.50
2023-01-22T03:38:52.369Z,17.70
2023-01-22T03:41:21.159Z,17.53
2023-01-22T03:43:49.840Z,15.90
2023-01-22T03:46:20.663Z,16.77
2023-01-22T03:48:54.099Z,15.07
2023-01-22T03:51:23.257Z,14.87
2023-01-22T03:53:52.231Z,12.77
2023-01-22T03:56:25.685Z,11.60
2023-01-22T03:58:56.578Z,11.83
2023-01-22T04:01:28.034Z,11.97
2023-01-22T04:03:56.709Z,10.60
2023-01-22T04:06:25.943Z,11.43
2023-01-22T04:08:59.179Z,10.60
2023-01-22T04:11:41.239Z,11.10
2023-01-22T04:14:11.677Z,10.67
2023-01-22T04:16:55.159Z,9.83
2023-01-22T04:19:44.369Z,9.53
2023-01-22T04:22:39.179Z,9.83
2023-01-22T04:25:07.714Z,8.50
2023-01-22T04:27:49.324Z,8.70
2023-01-22T04:33:47.266Z,9.77
2023-01-22T04:36:15.232Z,9.10
2023-01-22T04:38:44.146Z,8.60
2023-01-22T04:42:03.949Z,8.63
2023-01-22T05:02:17.101Z,8.03
2023-01-22T05:04:59.083Z,8.37
2023-01-22T05:14:18.317Z,8.50
2023-01-22T05:16:47.106Z,8.37
2023-01-22T05:22:16.297Z,8.60
2023-01-22T05:28:14.808Z,8.23
2023-01-22T05:33:33.915Z,8.40
2023-01-22T05:36:03.922Z,8.37
2023-01-22T05:38:32.721Z,7.67
2023-01-22T05:41:01.392Z,8.57
2023-01-22T05:43:30.600Z,8.97
2023-01-22T05:46:03.529Z,9.13
2023-01-22T05:48:35.447Z,8.37
2023-01-22T05:51:07.736Z,9.20
2023-01-22T05:53:37.506Z,10.30
2023-01-22T05:56:07.439Z,10.80
2023-01-22T05:58:36.174Z,10.87
2023-01-22T06:01:04.999Z,10.27
2023-01-22T06:03:34.054Z,10.47
2023-01-22T06:06:05.170Z,9.27
2023-01-22T06:08:34.943Z,9.10
2023-01-22T06:11:05.727Z,10.17
2023-01-22T06:13:35.172Z,9.93
2023-01-22T06:16:04.218Z,8.47
2023-01-22T06:18:33.166Z,8.37
2023-01-22T06:21:04.586Z,10.50
2023-01-22T06:23:33.668Z,11.67
2023-01-22T06:26:03.476Z,9.80
2023-01-22T06:28:32.495Z,10.40
2023-01-22T06:31:06.455Z,21.57
2023-01-22T06:33:48.938Z,20.77
2023-01-22T06:36:16.637Z,14.30
2023-01-22T06:38:45.520Z,14.00
2023-01-22T06:41:14.510Z,18.07
2023-01-22T06:43:43.254Z,16.13
2023-01-22T06:46:12.008Z,13.83
2023-01-22T06:48:42.386Z,13.03
2023-01-22T06:51:11.947Z,13.40
2023-01-22T06:53:41.086Z,11.70
2023-01-22T06:56:10.076Z,11.47
2023-01-22T06:58:38.772Z,10.97
2023-01-22T07:01:08.476Z,12.07
2023-01-22T07:03:37.128Z,11.70
2023-01-22T07:06:06.262Z,11.30
2023-01-22T07:08:35.525Z,12.07
2023-01-22T07:11:07.642Z,12.10
2023-01-22T07:13:35.213Z,11.97
2023-01-22T07:16:18.994Z,14.13
2023-01-22T07:18:47.768Z,17.20
2023-01-22T07:21:16.363Z,17.30
2023-01-22T07:23:45.241Z,19.00
2023-01-22T07:26:19.326Z,20.73
2023-01-22T07:28:49.923Z,21.07
2023-01-22T07:31:19.048Z,21.57
2023-01-22T07:33:47.790Z,23.20
2023-01-22T07:36:16.433Z,22.07
2023-01-22T07:38:45.162Z,22.63
2023-01-22T07:41:25.206Z,21.43
2023-01-22T07:43:44.710Z,20.03
2023-01-22T07:46:13.385Z,20.30
2023-01-22T07:48:42.712Z,20.53
2023-01-22T07:51:13.111Z,20.50
2023-01-22T07:53:43.049Z,22.47
2023-01-22T07:56:11.794Z,19.93
2023-01-22T07:58:41.830Z,18.87
2023-01-22T08:01:11.645Z,17.50
2023-01-22T08:03:40.854Z,19.40
2023-01-22T08:06:15.147Z,24.03
2023-01-22T08:08:44.334Z,24.33
2023-01-22T08:11:13.253Z,28.60
2023-01-22T08:13:41.810Z,30.87
2023-01-22T08:16:10.613Z,31.57
2023-01-22T08:18:39.264Z,31.23
2023-01-22T08:21:08.010Z,30.43
2023-01-22T08:23:36.711Z,27.87
2023-01-22T08:26:05.609Z,29.60
2023-01-22T08:28:34.249Z,28.37
2023-01-22T08:31:04.535Z,28.83
2023-01-22T08:33:34.562Z,28.63
2023-01-22T08:36:03.231Z,27.97
2023-01-22T08:38:31.897Z,26.23
2023-01-22T08:41:00.728Z,27.30
2023-01-22T08:43:30.154Z,25.73
2023-01-22T08:46:04.298Z,26.30
2023-01-22T08:48:34.401Z,25.93
2023-01-22T08:51:06.180Z,24.13
2023-01-22T08:53:34.947Z,22.93
2023-01-22T08:59:17.346Z,24.73
2023-01-22T09:01:52.154Z,22.73
2023-01-22T09:04:20.809Z,25.00
2023-01-22T09:06:49.435Z,23.80
2023-01-22T09:09:18.224Z,24.60
2023-01-22T09:11:47.040Z,24.57
2023-01-22T09:14:16.174Z,26.67
2023-01-22T09:16:45.210Z,28.77
2023-01-22T09:19:13.966Z,31.37
2023-01-22T09:21:42.546Z,32.63
2023-01-22T09:24:11.193Z,33.20
2023-01-22T09:26:40.674Z,31.03
2023-01-22T09:35:21.577Z,23.10
2023-01-22T09:37:52.449Z,21.85
2023-01-22T09:46:42.499Z,19.07
2023-01-22T09:49:20.836Z,19.82
2023-01-22T09:58:25.858Z,21.45
2023-01-22T10:34:31.843Z,27.57
2023-01-22T10:37:18.440Z,61.43
2023-01-22T10:39:50.907Z,64.47
2023-01-22T10:42:23.271Z,19.63
2023-01-22T10:45:13.437Z,23.20
2023-01-22T10:47:43.797Z,15.25
2023-01-22T10:50:15.224Z,17.52
2023-01-22T10:52:46.686Z,15.70
2023-01-22T10:55:27.017Z,15.10
2023-01-22T10:58:03.053Z,14.03
2023-01-22T11:00:50.465Z,24.60
2023-01-22T11:03:17.149Z,11.65
2023-01-22T11:05:47.823Z,12.50
2023-01-22T11:08:19.701Z,77.10
2023-01-22T11:10:54.196Z,20.17
2023-01-22T11:13:31.809Z,43.02
2023-01-22T11:16:20.845Z,20.00
2023-01-22T11:18:56.974Z,12.35
2023-01-22T11:21:40.435Z,16.40
2023-01-22T11:24:24.039Z,13.58
2023-01-22T11:27:24.184Z,12.55
2023-01-22T11:30:01.572Z,43.38
2023-01-22T11:32:51.429Z,44.33
2023-01-22T11:35:29.585Z,9.45
2023-01-22T11:38:01.294Z,9.40
2023-01-22T11:40:35.650Z,6.83
2023-01-22T11:43:26.739Z,9.40
2023-01-22T11:46:07.275Z,15.95
2023-01-22T11:48:59.822Z,27.17
2023-01-22T11:51:41.982Z,15.72
2023-01-22T11:54:30.605Z,22.85
2023-01-22T11:57:19.523Z,18.10
2023-01-22T12:00:06.140Z,27.70
2023-01-22T12:03:07.178Z,25.35
2023-01-22T12:05:51.180Z,20.75
2023-01-22T12:08:42.193Z,23.22
2023-01-22T12:11:13.849Z,4.05
2023-01-22T12:13:54.760Z,9.58
2023-01-22T12:16:32.581Z,7.42
2023-01-22T12:19:13.129Z,5.83
2023-01-22T12:21:46.424Z,7.97
2023-01-22T12:24:24.021Z,9.78
2023-01-22T12:27:04.957Z,5.33
2023-01-22T12:29:57.701Z,6.20
2023-01-22T12:32:30.213Z,4.50
2023-01-22T12:35:07.614Z,4.65
2023-01-22T12:37:58.847Z,3.85
2023-01-22T12:40:33.393Z,2.62
2023-01-22T12:43:07.191Z,2.30
2023-01-22T12:46:11.477Z,3.08
2023-01-22T12:48:46.456Z,3.60
2023-01-22T12:51:27.122Z,3.15
2023-01-22T12:53:57.527Z,3.37
2023-01-22T12:57:26.988Z,13.78
2023-01-22T13:02:58.305Z,3.55
2023-01-22T13:05:32.800Z,2.75
2023-01-22T13:08:22.620Z,2.25
2023-01-22T13:11:00.309Z,2.72
2023-01-22T13:13:35.281Z,2.72
2023-01-22T13:16:10.174Z,2.90
2023-01-22T13:18:44.275Z,2.80
2023-01-22T13:21:19.048Z,2.67
2023-01-22T13:23:51.359Z,2.33
2023-01-22T13:26:22.938Z,2.58
2023-01-22T13:29:00.181Z,3.50
2023-01-22T13:31:29.210Z,3.37
2023-01-22T13:34:06.610Z,3.40
2023-01-22T13:36:42.734Z,3.20
2023-01-22T13:39:23.018Z,2.75
2023-01-22T13:42:12.997Z,3.02
2023-01-22T13:48:28.029Z,2.95
2023-01-22T13:51:05.858Z,3.55
2023-01-22T13:53:50.499Z,3.90
2023-01-22T13:56:28.817Z,3.55
2023-01-22T13:59:09.625Z,3.35
2023-01-22T16:49:53.764Z,6.83
2023-01-22T16:52:23.239Z,5.83
2023-01-22T16:54:52.711Z,6.13
2023-01-22T16:57:21.314Z,6.07
2023-01-22T17:00:01.180Z,5.40
2023-01-22T17:02:24.363Z,5.73
2023-01-22T17:04:54.059Z,4.90
2023-01-22T17:07:33.639Z,4.70
2023-01-22T17:09:54.899Z,5.07
2023-01-22T17:12:23.545Z,6.03
2023-01-22T17:14:52.740Z,6.17
2023-01-22T17:17:21.470Z,6.67
2023-01-22T17:19:50.082Z,6.83
2023-01-22T17:22:18.749Z,6.30
2023-01-22T17:24:52.726Z,5.43
2023-01-22T17:27:21.696Z,6.20
2023-01-22T17:29:51.455Z,5.40
2023-01-22T17:32:20.631Z,4.83
2023-01-22T17:34:49.416Z,5.93
2023-01-22T17:37:18.224Z,6.17
2023-01-22T17:39:48.472Z,6.03
2023-01-22T17:42:18.552Z,5.93
2023-01-22T17:44:47.665Z,5.57
2023-01-22T17:47:16.527Z,5.97
2023-01-22T17:49:46.849Z,5.77
2023-01-22T17:52:20.574Z,6.90
2023-01-22T17:54:49.404Z,7.83
2023-01-22T17:57:18.019Z,6.70
2023-01-22T17:59:46.780Z,6.53
2023-01-22T18:06:00.425Z,6.90
2023-01-22T18:08:35.166Z,7.23
2023-01-22T18:11:09.785Z,7.40
2023-01-22T18:13:38.840Z,8.40
2023-01-22T18:16:10.081Z,8.67
2023-01-22T18:18:39.514Z,8.77
2023-01-22T18:21:10.483Z,8.87
2023-01-22T18:23:39.128Z,9.20
2023-01-22T18:26:09.250Z,7.80
2023-01-22T18:28:40.386Z,8.78
2023-01-22T18:31:11.784Z,7.87
2023-01-22T18:33:44.347Z,8.00
2023-01-22T18:36:24.601Z,8.43
2023-01-22T18:38:54.069Z,9.33
2023-01-22T18:41:25.370Z,7.37
2023-01-22T18:43:58.772Z,8.07
2023-01-22T18:46:34.396Z,8.00
2023-01-22T18:49:05.429Z,8.47
2023-01-22T18:54:31.841Z,10.17
2023-01-22T18:57:01.027Z,12.47
2023-01-22T18:59:29.793Z,12.57
2023-01-22T19:01:58.769Z,12.43
2023-01-22T19:04:29.295Z,11.80
2023-01-22T19:07:00.636Z,10.60
2023-01-22T19:09:31.160Z,9.70
2023-01-22T19:11:59.985Z,8.77
2023-01-22T19:14:28.794Z,8.73
2023-01-22T19:16:58.942Z,11.80
2023-01-22T19:19:27.663Z,8.53
2023-01-22T19:21:58.056Z,8.10
2023-01-22T19:24:28.558Z,9.23
2023-01-22T19:26:58.273Z,7.87
2023-01-22T19:29:27.767Z,7.00
2023-01-22T19:31:57.486Z,7.73
2023-01-22T19:34:28.764Z,7.03
2023-01-22T19:37:03.492Z,7.60
2023-01-22T19:39:32.481Z,7.80
2023-01-22T19:42:04.725Z,8.50
2023-01-22T19:44:35.506Z,7.60
2023-01-22T19:47:04.497Z,8.67
2023-01-22T19:49:33.508Z,10.23
2023-01-22T19:52:07.031Z,9.07
2023-01-22T19:54:36.414Z,9.57
2023-01-22T19:57:10.018Z,9.13
2023-01-22T20:36:35.710Z,8.87
2023-01-22T20:38:03.083Z,8.67
2023-01-22T20:40:47.463Z,9.93
2023-01-22T20:43:17.891Z,9.73
2023-01-22T20:45:49.720Z,8.47
2023-01-22T21:22:01.169Z,7.77
2023-01-22T21:24:29.834Z,7.17
2023-01-22T21:27:00.859Z,6.37
2023-01-22T21:29:31.995Z,4.93
2023-01-22T21:32:04.618Z,5.57
2023-01-22T21:34:33.573Z,5.30
2023-01-22T21:37:02.243Z,5.20
2023-01-22T21:39:31.645Z,5.47
2023-01-22T21:42:05.141Z,5.40
2023-01-22T21:44:51.730Z,4.80
2023-01-22T21:47:20.382Z,5.23
2023-01-22T21:49:50.000Z,5.30
2023-01-22T21:52:18.497Z,5.17
2023-01-22T21:54:47.032Z,5.93
2023-01-22T21:57:17.215Z,6.10
2023-01-22T21:59:46.669Z,5.73
2023-01-22T22:02:19.779Z,6.27
2023-01-22T22:05:00.915Z,5.40
2023-01-22T22:07:29.590Z,5.47
2023-01-22T22:09:58.256Z,5.37
2023-01-22T22:12:28.596Z,5.97
2023-01-22T22:14:57.282Z,5.77
2023-01-22T22:17:25.968Z,5.27
2023-01-22T22:19:55.660Z,5.53
2023-01-22T22:22:24.490Z,5.83
2023-01-22T22:24:56.050Z,6.23
2023-01-22T22:27:27.596Z,5.70
2023-01-22T22:29:55.619Z,6.00
2023-01-22T22:32:25.014Z,5.87
2023-01-22T22:34:55.132Z,6.43
2023-01-22T22:37:23.786Z,6.30
2023-01-22T22:39:52.407Z,6.70
2023-01-22T22:48:44.459Z,6.17
2023-01-22T22:51:09.948Z,6.00
2023-01-22T22:56:59.802Z,5.43
2023-01-22T23:02:23.943Z,6.37
2023-01-22T23:05:10.437Z,5.70
2023-01-22T23:07:40.970Z,6.03
2023-01-22T23:10:13.534Z,5.90
2023-01-22T23:12:45.121Z,5.87
2023-01-22T23:15:17.338Z,5.97
2023-01-22T23:17:50.855Z,5.47
2023-01-22T23:20:52.465Z,5.40
2023-01-22T23:23:49.760Z,5.80
2023-01-22T23:26:25.827Z,5.67
2023-01-22T23:28:58.959Z,5.13
2023-01-22T23:31:34.452Z,5.53
2023-01-22T23:40:15.492Z,5.97
2023-01-22T23:42:45.716Z,5.90
2023-01-22T23:45:20.136Z,6.03
2023-01-22T23:47:51.923Z,6.00
2023-01-22T23:50:20.918Z,6.33
2023-01-22T23:52:51.710Z,5.93
2023-01-22T23:55:20.561Z,7.63
2023-01-22T23:57:49.472Z,6.63
